createdAt,value
2023-01-12T00:01:19.335Z,6.30
2023-01-12T00:05:18.595Z,6.30
2023-01-12T00:09:48.691Z,6.40
2023-01-12T00:27:28.045Z,6.10
2023-01-12T00:31:31.137Z,5.40
2023-01-12T00:35:05.767Z,5.60
2023-01-12T00:38:24.318Z,5.40
2023-01-12T00:42:31.514Z,6.40
2023-01-12T00:46:39.659Z,5.50
2023-01-12T01:03:16.627Z,5.20
2023-01-12T01:07:11.199Z,5.70
2023-01-12T01:11:47.054Z,5.70
2023-01-12T01:16:16.319Z,6.00
2023-01-12T01:20:35.517Z,5.90
2023-01-12T01:24:55.953Z,5.40
2023-01-12T01:42:15.031Z,6.10
2023-01-12T01:58:38.144Z,7.20
2023-01-12T02:02:36.366Z,7.30
2023-01-12T02:06:50.324Z,7.40
2023-01-12T02:10:45.227Z,6.90
2023-01-12T02:15:13.496Z,7.30
2023-01-12T02:19:52.576Z,7.10
2023-01-12T02:24:24.466Z,5.90
2023-01-12T02:29:09.133Z,6.40
2023-01-12T02:42:40.279Z,6.30
2023-01-12T02:47:09.973Z,5.70
2023-01-12T03:09:00.805Z,6.00
2023-01-12T03:13:18.370Z,5.90
2023-01-12T03:16:53.957Z,5.20
2023-01-12T03:21:11.876Z,4.80
2023-01-12T03:25:43.606Z,4.60
2023-01-12T03:30:09.950Z,4.60
2023-01-12T03:52:14.379Z,3.50
2023-01-12T03:57:57.493Z,3.40
2023-01-12T04:01:47.546Z,2.70
2023-01-12T04:06:20.373Z,3.40
2023-01-12T04:10:58.587Z,3.40
2023-01-12T04:23:55.222Z,2.90
2023-01-12T04:28:30.419Z,3.90
2023-01-12T04:33:01.046Z,2.90
2023-01-12T04:54:37.457Z,3.00
2023-01-12T04:58:26.495Z,3.70
2023-01-12T05:02:06.428Z,2.50
2023-01-12T05:06:35.740Z,2.40
2023-01-12T05:10:27.356Z,2.20
2023-01-12T05:13:57.733Z,2.90
2023-01-12T05:17:20.458Z,2.40
2023-01-12T05:21:15.232Z,2.80
2023-01-12T05:47:43.959Z,2.70
2023-01-12T05:51:58.554Z,2.40
2023-01-12T05:56:11.624Z,2.90
2023-01-12T06:00:41.924Z,3.30
2023-01-12T06:32:00.547Z,4.20
2023-01-12T06:36:19.239Z,4.10
2023-01-12T06:40:39.013Z,3.50
2023-01-12T06:44:58.194Z,5.30
2023-01-12T06:49:26.541Z,4.80
2023-01-12T06:53:56.841Z,5.20
2023-01-12T06:57:40.924Z,4.30
2023-01-12T07:02:03.609Z,4.10
2023-01-12T07:26:14.380Z,2.90
2023-01-12T07:29:59.514Z,2.70
2023-01-12T07:33:40.405Z,2.60
2023-01-12T07:37:25.430Z,2.90
2023-01-12T07:41:03.506Z,3.80
2023-01-12T07:44:41.224Z,7.60
2023-01-12T07:48:35.701Z,7.40
2023-01-12T07:52:09.081Z,8.90
2023-01-12T07:55:44.419Z,12.40
2023-01-12T07:59:31.373Z,12.60
2023-01-12T08:03:22.332Z,11.40
2023-01-12T08:07:05.354Z,4.50
2023-01-12T08:10:50.339Z,6.90
2023-01-12T08:14:01.635Z,3.20
2023-01-12T08:17:11.135Z,3.10
2023-01-12T08:20:52.518Z,2.70
2023-01-12T08:24:12.461Z,2.60
2023-01-12T08:27:46.811Z,2.30
2023-01-12T08:31:06.298Z,4.60
2023-01-12T08:34:23.584Z,2.90
2023-01-12T08:37:54.321Z,2.80
2023-01-12T08:40:57.814Z,3.40
2023-01-12T08:44:28.783Z,3.00
2023-01-12T08:47:59.858Z,2.10
2023-01-12T08:51:52.558Z,2.40
2023-01-12T08:55:44.226Z,2.20
2023-01-12T08:59:25.796Z,2.40
2023-01-12T09:03:03.417Z,2.20
2023-01-12T09:06:28.325Z,3.20
2023-01-12T09:10:38.862Z,2.60
2023-01-12T09:14:22.233Z,2.10
2023-01-12T09:17:30.556Z,1.70
2023-01-12T09:21:11.441Z,2.30
2023-01-12T09:24:52.662Z,2.30
2023-01-12T09:29:01.395Z,2.60
2023-01-12T09:32:48.553Z,2.50
2023-01-12T09:37:03.654Z,2.10
2023-01-12T09:41:05.111Z,2.30
2023-01-12T09:45:14.686Z,2.40
2023-01-12T09:49:42.348Z,2.20
2023-01-12T09:53:31.216Z,2.60
2023-01-12T09:57:44.724Z,1.70
2023-01-12T10:09:43.652Z,1.70
2023-01-12T12:02:02.118Z,1.60
2023-01-12T12:06:46.609Z,2.60
2023-01-12T12:11:16.776Z,1.50
2023-01-12T12:16:02.184Z,2.00
2023-01-12T12:20:38.605Z,1.80
2023-01-12T12:25:40.149Z,1.50
2023-01-12T12:30:12.036Z,2.00
2023-01-12T12:34:19.977Z,1.90
2023-01-12T12:39:03.161Z,1.60
2023-01-12T12:43:49.255Z,1.70
2023-01-12T12:52:52.173Z,2.00
2023-01-12T13:12:00.159Z,1.70
2023-01-12T13:16:29.611Z,1.70
2023-01-12T13:20:52.011Z,1.60
2023-01-12T13:25:20.009Z,1.80
2023-01-12T13:30:04.260Z,2.60
2023-01-12T13:34:33.015Z,1.70
2023-01-12T13:39:03.620Z,1.90
2023-01-12T13:43:36.521Z,1.30
2023-01-12T13:56:28.742Z,1.40
2023-01-12T14:00:57.731Z,2.60
2023-01-12T14:05:13.725Z,1.80
2023-01-12T14:09:54.823Z,1.30
2023-01-12T14:14:17.014Z,1.50
2023-01-12T14:39:43.368Z,1.50
2023-01-12T14:43:57.488Z,1.60
2023-01-12T14:48:28.958Z,1.60
2023-01-12T14:52:37.675Z,1.80
2023-01-12T14:57:22.412Z,1.40
2023-01-12T15:01:23.382Z,1.40
2023-01-12T15:40:41.967Z,1.30
2023-01-12T15:44:53.781Z,1.30
2023-01-12T15:49:24.037Z,1.70
2023-01-12T16:10:48.044Z,1.70
2023-01-12T16:15:17.263Z,1.30
2023-01-12T16:19:45.975Z,1.70
2023-01-12T16:50:28.804Z,1.40
2023-01-12T16:54:58.708Z,1.50
2023-01-12T17:12:08.566Z,1.40
2023-01-12T17:16:37.997Z,1.50
2023-01-12T17:21:07.367Z,1.20
2023-01-12T17:25:30.029Z,1.20
2023-01-12T17:59:45.006Z,1.40
2023-01-12T18:04:14.430Z,1.80
2023-01-12T18:08:44.208Z,1.70
2023-01-12T18:13:12.020Z,2.10
2023-01-12T18:34:58.656Z,2.40
2023-01-12T18:39:28.051Z,2.30
2023-01-12T18:48:05.770Z,4.30
2023-01-12T19:09:57.137Z,1.90
2023-01-12T19:14:25.084Z,1.80
2023-01-12T19:18:43.341Z,1.60
2023-01-12T19:45:22.477Z,2.00
2023-01-12T19:49:48.445Z,1.80
2023-01-12T20:11:39.652Z,1.80
2023-01-12T20:16:09.701Z,1.90
2023-01-12T20:20:34.789Z,1.30
2023-01-12T20:41:48.145Z,1.30
2023-01-12T20:46:18.021Z,1.50
2023-01-12T20:54:49.004Z,1.30
2023-01-12T21:16:42.375Z,1.40
2023-01-12T21:21:12.067Z,1.20
2023-01-12T21:43:51.106Z,0.80
2023-01-12T21:48:19.948Z,1.00
2023-01-12T21:52:50.909Z,1.00
2023-01-12T21:57:15.813Z,1.10
2023-01-12T22:10:39.945Z,1.00
2023-01-12T22:15:09.386Z,0.80
2023-01-12T22:38:05.086Z,0.90
2023-01-12T22:42:35.487Z,0.70
2023-01-12T22:47:05.150Z,1.00
2023-01-12T23:08:51.493Z,1.00
2023-01-12T23:13:31.893Z,0.80
2023-01-12T23:17:55.234Z,1.00
2023-01-12T23:30:51.246Z,1.20
2023-01-12T23:52:28.939Z,1.10
2023-01-12T23:56:58.482Z,0.80
